Time;durP1;ratioP1;P1;durP2;ratioP2;P2;SDS_P1;SDS_P2;PMS_P1;PMS_P2;Temp;Humidity;BMP_temperature;BMP_pressure;BME280_temperature;BME280_humidity;BME280_pressure;Samples;Min_cycle;Max_cycle;Signal;HPM_P1;HPM_P2
2023/05/14 00:00:07;;;;;;;24.00;10.13;;;;;;;15.32;51.31;100963.14;1624607;88;21074;-56
2023/05/14 00:02:38;;;;;;;20.37;9.03;;;;;;;15.33;51.50;100966.22;1624651;88;21469;-57
2023/05/14 00:05:08;;;;;;;27.07;11.78;;;;;;;15.33;51.14;100968.13;1624480;88;21062;-56
2023/05/14 00:07:37;;;;;;;23.18;10.82;;;;;;;15.31;50.83;100965.59;1624538;88;21101;-57
2023/05/14 00:10:08;;;;;;;22.87;9.48;;;;;;;15.30;50.60;100962.51;1624666;88;21112;-57
2023/05/14 00:12:37;;;;;;;25.55;9.48;;;;;;;15.31;50.28;100967.50;1624534;88;21034;-57
2023/05/14 00:15:07;;;;;;;24.55;9.75;;;;;;;15.30;50.64;100972.17;1624614;88;21146;-58
2023/05/14 00:17:37;;;;;;;23.47;9.90;;;;;;;15.28;51.15;100977.59;1624416;88;21057;-58
2023/05/14 00:20:07;;;;;;;20.52;9.13;;;;;;;15.24;51.12;100981.31;1624573;88;21097;-57
2023/05/14 00:22:36;;;;;;;25.12;11.20;;;;;;;15.22;51.15;100981.53;1624737;88;21110;-56
2023/05/14 00:25:07;;;;;;;27.30;11.57;;;;;;;15.21;51.07;100981.73;1624453;88;21030;-58
2023/05/14 00:27:36;;;;;;;23.77;10.63;;;;;;;15.19;51.27;100980.58;1624479;88;21074;-57
2023/05/14 00:30:06;;;;;;;28.73;10.43;;;;;;;15.21;51.46;100981.73;1624878;88;21074;-57
2023/05/14 00:32:35;;;;;;;19.67;9.43;;;;;;;15.21;51.44;100988.64;1624537;88;21101;-57
2023/05/14 00:35:05;;;;;;;26.20;11.18;;;;;;;15.21;51.43;100983.97;1624613;88;21130;-57
2023/05/14 00:37:35;;;;;;;27.45;11.80;;;;;;;15.23;51.49;100988.75;1624271;88;21117;-57
2023/05/14 00:40:07;;;;;;;26.52;10.90;;;;;;;15.23;51.75;100986.52;1657417;86;21051;-57
2023/05/14 00:42:36;;;;;;;25.82;10.63;;;;;;;15.21;52.02;100982.59;1657196;86;21039;-56
2023/05/14 00:45:06;;;;;;;20.88;9.68;;;;;;;15.18;52.14;100980.79;1657227;85;21552;-58
2023/05/14 00:47:36;;;;;;;18.95;8.45;;;;;;;15.16;52.18;100975.48;1657079;86;21096;-58
2023/05/14 00:50:06;;;;;;;18.17;9.13;;;;;;;15.14;52.38;100977.61;1657011;86;21064;-56
2023/05/14 00:52:35;;;;;;;18.90;8.70;;;;;;;15.10;52.63;100970.81;1656973;86;21099;-58
2023/05/14 00:55:05;;;;;;;18.55;9.13;;;;;;;15.09;52.72;100978.78;1657369;86;21032;-57
2023/05/14 00:57:35;;;;;;;17.95;8.25;;;;;;;15.08;52.86;100983.13;1657441;86;21290;-57
2023/05/14 01:00:05;;;;;;;22.17;9.50;;;;;;;15.07;52.81;100980.05;1657141;86;21032;-58
2023/05/14 01:02:34;;;;;;;19.85;9.83;;;;;;;15.09;53.22;100987.06;1657059;86;21537;-57
2023/05/14 01:05:05;;;;;;;19.05;8.68;;;;;;;15.08;53.90;100973.47;1657339;86;21104;-58
2023/05/14 01:07:48;;;;;;;14.53;7.90;;;;;;;15.08;54.08;100982.59;1657355;85;21051;-57
2023/05/14 01:10:34;;;;;;;24.50;8.83;;;;;;;15.09;54.75;100980.69;1657461;86;21040;-57
2023/05/14 01:13:14;;;;;;;17.37;7.80;;;;;;;15.07;55.20;100969.86;1657136;85;20997;-57
2023/05/14 01:15:43;;;;;;;14.50;7.95;;;;;;;15.05;55.50;100976.13;1657107;85;21008;-57
2023/05/14 01:18:14;;;;;;;16.30;6.85;;;;;;;15.01;55.72;100975.39;1657378;86;21060;-57
2023/05/14 01:20:44;;;;;;;17.82;6.60;;;;;;;14.97;56.00;100976.34;1657287;86;21036;-57
2023/05/14 01:23:14;;;;;;;12.37;5.87;;;;;;;14.94;55.80;100984.16;1657179;86;21322;-57
2023/05/14 01:25:43;;;;;;;13.78;5.17;;;;;;;14.90;55.42;100975.46;1657067;86;21056;-57
2023/05/14 01:28:20;;;;;;;11.70;5.22;;;;;;;14.88;55.31;100981.19;1657059;86;21468;-57
2023/05/14 01:30:57;;;;;;;10.30;4.45;;;;;;;14.90;54.85;100976.31;1657321;85;21115;-57
2023/05/14 01:33:27;;;;;;;8.63;4.65;;;;;;;14.93;54.33;100985.22;1647667;86;21116;-56
2023/05/14 01:35:57;;;;;;;9.45;4.22;;;;;;;14.88;54.31;100982.57;1657131;86;21036;-57
2023/05/14 01:38:29;;;;;;;8.68;4.15;;;;;;;14.87;54.59;100982.78;1655653;85;21028;-58
2023/05/14 01:40:57;;;;;;;9.20;4.30;;;;;;;14.82;54.55;100975.14;1660032;85;21056;-57
2023/05/14 01:43:25;;;;;;;6.20;3.62;;;;;;;14.85;54.32;100973.87;1650319;87;21099;-57
2023/05/14 01:45:54;;;;;;;21.60;4.78;;;;;;;14.84;54.36;100970.79;1659678;86;21513;-57
2023/05/14 01:48:23;;;;;;;7.95;3.80;;;;;;;14.79;54.23;100964.53;1650294;87;21060;-56
2023/05/14 01:50:52;;;;;;;7.45;3.75;;;;;;;14.80;54.11;100964.00;1659506;86;21024;-57
2023/05/14 01:53:22;;;;;;;6.08;4.05;;;;;;;14.79;54.24;100963.15;1650307;87;21472;-58
2023/05/14 01:55:51;;;;;;;8.58;3.70;;;;;;;14.79;54.76;100956.78;1659737;86;21075;-57
2023/05/14 01:58:21;;;;;;;12.20;5.20;;;;;;;14.76;54.69;100951.69;1650549;86;21072;-57
2023/05/14 02:00:51;;;;;;;16.60;7.15;;;;;;;14.73;54.77;100958.48;1659796;85;21007;-57
2023/05/14 02:03:20;;;;;;;22.93;8.85;;;;;;;14.74;54.88;100960.70;1650297;86;20996;-57
2023/05/14 02:05:49;;;;;;;20.70;8.38;;;;;;;14.73;54.67;100957.10;1659723;85;21004;-58
2023/05/14 02:08:20;;;;;;;19.10;8.03;;;;;;;14.71;54.50;100951.48;1650431;87;21472;-57
2023/05/14 02:10:49;;;;;;;16.10;6.97;;;;;;;14.68;54.28;100948.61;1659697;86;21054;-56
2023/05/14 02:13:19;;;;;;;17.90;7.17;;;;;;;14.67;54.23;100949.67;1650565;87;21024;-58
2023/05/14 02:15:49;;;;;;;18.02;7.40;;;;;;;14.68;54.29;100951.89;1659417;85;21228;-57
2023/05/14 02:18:19;;;;;;;17.12;7.58;;;;;;;14.66;54.46;100955.39;1650226;86;21032;-58
2023/05/14 02:20:47;;;;;;;21.05;8.60;;;;;;;14.63;54.47;100949.77;1659645;85;21040;-58
2023/05/14 02:23:18;;;;;;;23.30;9.13;;;;;;;14.56;54.63;100955.28;1650402;86;21028;-58
2023/05/14 02:25:51;;;;;;;16.40;6.80;;;;;;;14.51;54.72;100960.58;1659157;86;21087;-58
2023/05/14 02:28:21;;;;;;;12.20;6.35;;;;;;;14.46;54.96;100963.65;1650355;86;21508;-57
2023/05/14 02:30:51;;;;;;;13.83;6.58;;;;;;;14.41;55.08;100954.59;1659703;86;21079;-58
2023/05/14 02:33:20;;;;;;;14.75;7.42;;;;;;;14.41;55.06;100950.45;1650225;86;21040;-57
2023/05/14 02:35:50;;;;;;;16.65;7.22;;;;;;;14.43;54.98;100955.80;1659664;86;21463;-56
2023/05/14 02:38:19;;;;;;;19.70;8.75;;;;;;;14.44;54.99;100960.25;1651473;85;21088;-57
2023/05/14 02:40:49;;;;;;;19.27;7.08;;;;;;;14.44;54.94;100960.25;1662356;85;21056;-58
2023/05/14 02:43:18;;;;;;;16.20;7.47;;;;;;;14.42;54.97;100969.23;1683531;85;21067;-56
2023/05/14 02:45:49;;;;;;;16.32;6.72;;;;;;;14.37;54.87;100961.58;1662451;86;21075;-57
2023/05/14 02:48:18;;;;;;;15.65;6.65;;;;;;;14.32;54.81;100959.13;1683557;85;21004;-57
2023/05/14 02:50:50;;;;;;;11.25;6.55;;;;;;;14.29;54.80;100956.23;1662147;85;21039;-57
2023/05/14 02:53:20;;;;;;;12.18;6.20;;;;;;;14.27;54.77;100959.20;1683810;85;21444;-56
2023/05/14 02:55:49;;;;;;;12.58;6.12;;;;;;;14.22;55.02;100947.95;1662425;86;21059;-56
2023/05/14 02:58:18;;;;;;;13.13;6.05;;;;;;;14.19;55.21;100945.61;1683709;85;21071;-56
2023/05/14 03:00:50;;;;;;;11.78;6.37;;;;;;;14.17;55.35;100957.37;1662015;85;21467;-57
2023/05/14 03:03:19;;;;;;;16.87;6.62;;;;;;;14.13;55.41;100954.70;1683456;85;21047;-56
2023/05/14 03:05:49;;;;;;;15.28;6.65;;;;;;;14.11;55.62;100959.58;1662385;86;21027;-57
2023/05/14 03:08:18;;;;;;;15.50;6.50;;;;;;;14.11;55.83;100958.73;1683595;85;21095;-56
2023/05/14 03:10:47;;;;;;;12.65;5.33;;;;;;;14.12;55.94;100957.14;1662395;86;21040;-56
2023/05/14 03:13:18;;;;;;;12.63;4.90;;;;;;;14.13;56.16;100955.23;1683640;85;21083;-56
2023/05/14 03:15:48;;;;;;;11.93;4.85;;;;;;;14.11;55.97;100965.09;1652605;86;21040;-55
2023/05/14 03:18:16;;;;;;;16.17;5.70;;;;;;;14.09;55.63;100957.55;1683603;85;21036;-57
2023/05/14 03:20:47;;;;;;;13.88;5.85;;;;;;;14.12;55.61;100960.42;1662474;85;21016;-58
2023/05/14 03:23:16;;;;;;;13.15;5.92;;;;;;;14.14;55.49;100961.92;1683630;85;21467;-56
2023/05/14 03:25:46;;;;;;;13.15;5.67;;;;;;;14.17;55.36;100955.98;1662183;85;21043;-58
2023/05/14 03:28:15;;;;;;;12.78;5.58;;;;;;;14.20;55.55;100956.10;1683549;85;21036;-57
2023/05/14 03:30:44;;;;;;;7.67;4.95;;;;;;;14.20;55.77;100956.10;1662631;86;21384;-56
2023/05/14 03:33:13;;;;;;;9.50;4.97;;;;;;;14.23;56.17;100956.53;1683805;85;21067;-57
2023/05/14 03:35:42;;;;;;;11.25;4.75;;;;;;;14.28;56.18;100955.38;1662104;86;21510;-56
2023/05/14 03:38:10;;;;;;;10.35;5.33;;;;;;;14.33;56.26;100952.56;1683720;85;21031;-55
2023/05/14 03:40:40;;;;;;;9.10;4.50;;;;;;;14.37;56.17;100959.36;1662310;85;21471;-56
2023/05/14 03:43:10;;;;;;;10.03;4.30;;;;;;;14.43;56.20;100956.64;1683756;85;21082;-56
2023/05/14 03:45:39;;;;;;;9.98;4.17;;;;;;;14.51;56.24;100957.82;1662461;85;21068;-57
2023/05/14 03:48:08;;;;;;;8.08;4.17;;;;;;;14.58;56.39;100961.97;1683846;85;21036;-57
2023/05/14 03:50:38;;;;;;;12.68;8.35;;;;;;;14.63;56.18;100955.81;1662251;85;21051;-56
2023/05/14 03:53:07;;;;;;;24.15;17.50;;;;;;;14.67;55.92;100959.86;1683631;85;21031;-56
2023/05/14 03:55:37;;;;;;;21.30;15.53;;;;;;;14.73;55.90;100965.38;1662564;85;21099;-57
2023/05/14 03:58:12;;;;;;;20.20;13.68;;;;;;;14.79;55.76;100959.02;1683825;85;21008;-57
2023/05/14 04:00:36;;;;;;;15.93;10.08;;;;;;;14.85;55.76;100965.06;1662016;85;21068;-56
2023/05/14 04:03:05;;;;;;;15.45;7.87;;;;;;;14.91;55.70;100960.07;1683741;85;21128;-57
2023/05/14 04:05:36;;;;;;;12.55;7.00;;;;;;;15.00;55.65;100964.88;1662231;85;21109;-57
2023/05/14 04:08:05;;;;;;;9.55;5.50;;;;;;;15.05;55.70;100958.19;1683706;85;21083;-57
2023/05/14 04:10:33;;;;;;;11.90;4.92;;;;;;;15.11;55.64;100950.97;1662173;86;21035;-56
2023/05/14 04:13:02;;;;;;;7.40;4.17;;;;;;;15.17;55.26;100942.67;1683622;85;21152;-57
2023/05/14 04:15:38;;;;;;;6.92;3.83;;;;;;;15.27;54.88;100944.14;1662255;85;21091;-57
2023/05/14 04:18:08;;;;;;;8.05;4.45;;;;;;;15.36;54.97;100947.84;1683544;85;21039;-57
2023/05/14 04:20:37;;;;;;;8.40;5.00;;;;;;;15.44;54.95;100947.61;1662373;86;21023;-57
2023/05/14 04:23:06;;;;;;;13.03;6.22;;;;;;;15.55;54.05;100953.00;1683832;85;21050;-55
2023/05/14 04:25:35;;;;;;;10.50;6.42;;;;;;;15.64;54.57;100954.52;1662245;86;21091;-56
2023/05/14 04:28:04;;;;;;;9.33;5.62;;;;;;;15.69;54.78;100954.72;1683658;85;21007;-57
2023/05/14 04:30:33;;;;;;;9.80;5.78;;;;;;;15.73;54.54;100957.36;1662199;86;21032;-56
2023/05/14 04:33:02;;;;;;;11.10;6.17;;;;;;;15.79;54.45;100954.25;1683668;85;21056;-57
2023/05/14 04:35:33;;;;;;;12.23;5.67;;;;;;;15.83;54.14;100952.75;1662156;85;21056;-57
2023/05/14 04:38:02;;;;;;;17.95;7.22;;;;;;;15.89;53.84;100960.16;1683780;85;21051;-58
2023/05/14 04:40:31;;;;;;;12.93;6.40;;;;;;;15.96;53.66;100954.61;1659228;86;21052;-57
2023/05/14 04:43:00;;;;;;;10.80;5.83;;;;;;;16.05;53.22;100954.14;1594917;89;21070;-56
2023/05/14 04:45:29;;;;;;;10.32;5.62;;;;;;;16.15;52.76;100955.05;1613608;88;21051;-57
2023/05/14 04:47:59;;;;;;;9.45;5.53;;;;;;;16.25;51.98;100951.80;1624374;88;21455;-57
2023/05/14 04:50:28;;;;;;;9.53;5.45;;;;;;;16.38;51.15;100958.66;1624737;88;21037;-57
2023/05/14 04:52:57;;;;;;;12.25;5.95;;;;;;;16.50;50.74;100963.80;1624698;88;21093;-57
2023/05/14 04:55:27;;;;;;;9.00;5.85;;;;;;;16.62;50.16;100968.93;1624784;88;21066;-57
2023/05/14 04:57:56;;;;;;;10.80;5.55;;;;;;;16.76;49.59;100965.02;1624212;88;21504;-57
2023/05/14 05:00:26;;;;;;;12.13;5.70;;;;;;;16.90;49.24;100964.92;1624296;88;21073;-58
2023/05/14 05:02:55;;;;;;;9.88;5.80;;;;;;;17.03;48.83;100964.30;1624581;88;21097;-57
2023/05/14 05:05:24;;;;;;;10.05;5.72;;;;;;;17.18;48.51;100968.11;1624524;88;21105;-58
2023/05/14 05:07:54;;;;;;;11.00;5.62;;;;;;;17.33;48.43;100958.05;1624087;88;21125;-57
2023/05/14 05:10:23;;;;;;;11.75;6.00;;;;;;;17.48;47.95;100966.00;1624143;88;21025;-57
2023/05/14 05:12:52;;;;;;;13.15;6.15;;;;;;;17.65;47.88;100960.19;1624396;88;21054;-56
2023/05/14 05:15:21;;;;;;;10.48;5.55;;;;;;;17.83;47.41;100960.22;1624423;88;21057;-57
2023/05/14 05:17:52;;;;;;;12.78;5.80;;;;;;;18.00;46.75;100963.20;1624470;88;21095;-57
2023/05/14 05:20:21;;;;;;;11.93;6.22;;;;;;;18.15;46.66;100958.09;1624649;88;21061;-56
2023/05/14 05:22:50;;;;;;;12.30;6.25;;;;;;;18.38;46.32;100955.99;1624404;88;21057;-59
2023/05/14 05:25:20;;;;;;;9.85;5.87;;;;;;;18.71;45.84;100957.45;1624332;88;21025;-57
2023/05/14 05:27:49;;;;;;;11.40;6.00;;;;;;;19.07;45.06;100955.91;1624449;88;21113;-58
2023/05/14 05:30:19;;;;;;;10.48;6.00;;;;;;;19.43;44.22;100957.61;1624662;88;21092;-56
2023/05/14 05:32:49;;;;;;;8.03;4.15;;;;;;;19.77;43.30;100956.48;1550917;92;21063;-56
2023/05/14 05:35:18;;;;;;;6.12;4.03;;;;;;;20.12;41.87;100954.98;1593602;90;21085;-58
2023/05/14 05:37:47;;;;;;;5.25;3.75;;;;;;;20.52;39.82;100948.03;1593446;90;21069;-58
2023/05/14 05:40:18;;;;;;;6.97;3.80;;;;;;;20.87;39.33;100948.70;1595439;90;21176;-58
2023/05/14 05:42:46;;;;;;;4.40;3.40;;;;;;;21.27;38.18;100951.04;1609482;89;21104;-58
2023/05/14 05:45:17;;;;;;;10.43;3.98;;;;;;;21.64;37.11;100948.00;1609338;89;21072;-57
2023/05/14 05:47:47;;;;;;;11.53;9.48;;;;;;;22.01;36.68;100945.42;1609186;89;21072;-56
2023/05/14 05:50:17;;;;;;;4.08;3.30;;;;;;;22.26;35.54;100950.52;1625102;85;21027;-57
2023/05/14 05:52:47;;;;;;;9.53;3.40;;;;;;;22.50;34.68;100948.82;1670862;86;21071;-57
2023/05/14 05:55:16;;;;;;;6.03;3.15;;;;;;;22.75;34.39;100949.07;1685627;85;21051;-57
2023/05/14 05:57:45;;;;;;;5.65;2.67;;;;;;;22.98;33.54;100939.00;1671022;86;21506;-58
2023/05/14 06:00:14;;;;;;;4.10;2.70;;;;;;;23.19;32.46;100947.55;1685978;85;21079;-58
2023/05/14 06:02:43;;;;;;;5.42;2.90;;;;;;;23.28;31.71;100952.92;1686374;85;20992;-57
2023/05/14 06:05:12;;;;;;;4.47;2.80;;;;;;;23.32;32.08;100955.47;1670938;85;21067;-58
2023/05/14 06:07:44;;;;;;;4.28;2.70;;;;;;;23.51;31.80;100952.56;1683828;85;21485;-58
2023/05/14 06:10:13;;;;;;;4.40;2.80;;;;;;;23.72;31.70;100949.35;1671544;85;21008;-58
2023/05/14 06:12:42;;;;;;;4.67;2.50;;;;;;;23.94;30.76;100956.17;1685731;85;21032;-58
2023/05/14 06:15:12;;;;;;;3.72;2.72;;;;;;;24.21;29.90;100948.47;1685779;85;21623;-57
2023/05/14 06:17:41;;;;;;;3.35;2.62;;;;;;;24.44;29.32;100958.94;1671559;85;21060;-59
2023/05/14 06:20:11;;;;;;;6.35;2.90;;;;;;;24.56;29.26;100954.76;1685587;85;21071;-57
2023/05/14 06:22:41;;;;;;;11.75;3.20;;;;;;;24.73;28.59;100949.48;1670453;86;21032;-58
2023/05/14 06:25:11;;;;;;;5.53;3.10;;;;;;;24.88;28.35;100945.30;1685898;85;21059;-58
2023/05/14 06:27:40;;;;;;;5.28;2.98;;;;;;;24.96;27.81;100951.75;1686185;85;21503;-59
2023/05/14 06:30:11;;;;;;;4.65;3.00;;;;;;;25.04;27.81;100953.19;1671455;86;21036;-58
2023/05/14 06:32:40;;;;;;;3.60;2.60;;;;;;;25.14;27.56;100951.22;1685941;84;21047;-58
2023/05/14 06:35:09;;;;;;;5.83;2.65;;;;;;;25.23;27.09;100940.27;1670642;85;21083;-59
2023/05/14 06:37:38;;;;;;;4.67;2.80;;;;;;;25.39;27.14;100953.19;1685802;85;21051;-59
2023/05/14 06:40:09;;;;;;;2.98;2.55;;;;;;;25.56;27.22;100952.88;1652317;86;21111;-58
2023/05/14 06:42:38;;;;;;;4.28;2.70;;;;;;;25.79;26.74;100945.82;1684555;85;21078;-60
2023/05/14 06:45:09;;;;;;;5.53;3.00;;;;;;;25.92;26.44;100950.83;1686375;85;21035;-59
2023/05/14 06:47:39;;;;;;;7.78;2.72;;;;;;;26.00;26.36;100947.42;1670324;85;21071;-57
2023/05/14 06:50:09;;;;;;;8.43;2.80;;;;;;;26.08;25.51;100942.64;1685976;84;21011;-57
2023/05/14 06:52:39;;;;;;;3.42;2.65;;;;;;;26.10;25.55;100947.97;1685267;85;21035;-58
2023/05/14 06:55:09;;;;;;;4.12;2.95;;;;;;;26.20;25.50;100950.17;1671190;85;21063;-58
2023/05/14 06:57:38;;;;;;;3.27;2.98;;;;;;;26.31;25.24;100942.53;1685842;84;21074;-57
2023/05/14 07:00:10;;;;;;;5.47;2.75;;;;;;;26.42;24.96;100944.18;1686530;85;21043;-58
2023/05/14 07:02:39;;;;;;;5.20;3.10;;;;;;;26.40;25.02;100948.41;1671199;85;21044;-57
2023/05/14 07:05:09;;;;;;;6.30;3.20;;;;;;;26.19;25.13;100947.09;1685068;85;21031;-58
2023/05/14 07:07:38;;;;;;;5.33;3.00;;;;;;;26.02;25.21;100943.80;1686159;85;21452;-57
2023/05/14 07:10:07;;;;;;;6.55;2.90;;;;;;;25.87;25.52;100942.42;1671211;85;21036;-58
2023/05/14 07:12:36;;;;;;;7.45;3.30;;;;;;;25.66;25.34;100936.59;1670374;86;21028;-58
2023/05/14 07:15:07;;;;;;;5.95;3.50;;;;;;;25.49;25.27;100944.75;1685287;85;21079;-58
2023/05/14 07:17:36;;;;;;;8.45;3.42;;;;;;;25.34;25.54;100939.13;1686178;85;21934;-58
2023/05/14 07:20:07;;;;;;;8.63;3.37;;;;;;;25.18;25.96;100941.67;1670714;86;21071;-57
2023/05/14 07:22:38;;;;;;;7.00;3.40;;;;;;;25.00;26.37;100932.44;1686061;84;21479;-57
2023/05/14 07:25:08;;;;;;;5.67;3.10;;;;;;;24.88;26.68;100935.48;1686376;85;21063;-57
2023/05/14 07:27:36;;;;;;;7.17;3.00;;;;;;;24.89;27.06;100932.40;1671378;85;21075;-58
2023/05/14 07:30:08;;;;;;;6.08;3.20;;;;;;;24.93;26.69;100936.33;1684982;85;21467;-58
2023/05/14 07:32:37;;;;;;;5.42;2.92;;;;;;;24.98;26.83;100936.08;1686378;85;21031;-57
2023/05/14 07:35:07;;;;;;;6.55;3.10;;;;;;;25.10;26.93;100925.42;1671126;86;21186;-58
2023/05/14 07:37:37;;;;;;;6.67;3.50;;;;;;;25.27;26.22;100926.80;1685608;85;21083;-57
2023/05/14 07:40:08;;;;;;;6.03;3.45;;;;;;;25.41;26.16;100928.48;1684413;85;21040;-58
2023/05/14 07:42:37;;;;;;;4.30;3.12;;;;;;;25.58;26.08;100925.36;1651457;86;21084;-58
2023/05/14 07:45:08;;;;;;;8.48;3.92;;;;;;;25.87;25.62;100928.37;1661052;86;21071;-58
2023/05/14 07:47:39;;;;;;;6.78;3.20;;;;;;;26.19;24.87;100920.95;1651048;87;21032;-58
2023/05/14 07:50:09;;;;;;;10.25;3.22;;;;;;;26.49;24.83;100908.72;1660943;86;21083;-58
2023/05/14 07:52:38;;;;;;;5.90;3.45;;;;;;;26.70;24.65;100914.50;1660838;85;21095;-57
2023/05/14 07:55:09;;;;;;;5.25;3.30;;;;;;;26.84;24.38;100907.08;1651537;87;21145;-57
2023/05/14 07:57:38;;;;;;;6.25;3.02;;;;;;;27.08;24.04;100909.16;1660898;85;21008;-57
2023/05/14 08:00:09;;;;;;;7.22;2.98;;;;;;;27.28;23.71;100907.55;1666754;86;21035;-58
2023/05/14 08:02:42;;;;;;;5.47;3.22;;;;;;;27.62;23.72;100916.53;1679702;85;21022;-58
2023/05/14 08:05:11;;;;;;;4.70;3.05;;;;;;;27.94;22.89;100912.48;1679024;85;21018;-58
2023/05/14 08:07:42;;;;;;;6.53;3.17;;;;;;;28.12;22.58;100909.45;1678814;84;21126;-59
2023/05/14 08:10:11;;;;;;;5.70;3.00;;;;;;;28.20;22.31;100913.58;1678634;85;21061;-57
2023/05/14 08:12:41;;;;;;;5.53;3.10;;;;;;;28.35;21.96;100906.34;1677541;85;21022;-57
2023/05/14 08:15:11;;;;;;;4.65;3.02;;;;;;;28.46;21.32;100900.81;1691471;83;21045;-57
2023/05/14 08:17:41;;;;;;;5.35;2.92;;;;;;;28.41;21.41;100905.13;1691617;83;21070;-58
2023/05/14 08:20:11;;;;;;;5.72;2.72;;;;;;;28.36;21.81;100903.79;1708386;84;21517;-58
2023/05/14 08:22:40;;;;;;;7.83;3.40;;;;;;;28.43;21.45;100901.42;1684707;84;21046;-57
2023/05/14 08:25:11;;;;;;;6.70;3.08;;;;;;;28.49;21.75;100901.62;1677201;84;21069;-59
2023/05/14 08:27:41;;;;;;;5.97;2.70;;;;;;;28.69;21.43;100899.08;1678930;84;21101;-58
2023/05/14 08:30:11;;;;;;;7.35;3.05;;;;;;;28.82;21.29;100887.02;1677976;85;21559;-57
2023/05/14 08:32:40;;;;;;;4.83;2.83;;;;;;;28.98;21.04;100892.69;1677075;85;21037;-57
2023/05/14 08:35:10;;;;;;;6.72;2.70;;;;;;;28.99;20.86;100890.13;1676862;85;21081;-58
2023/05/14 08:37:39;;;;;;;4.28;2.90;;;;;;;28.96;20.82;100892.16;1676923;85;21045;-59
2023/05/14 08:40:09;;;;;;;3.92;2.72;;;;;;;28.96;20.85;100887.09;1676821;85;21060;-58
2023/05/14 08:42:43;;;;;;;4.15;3.00;;;;;;;28.97;20.60;100891.02;1668814;85;21125;-57
2023/05/14 08:45:20;;;;;;;6.33;2.50;;;;;;;29.04;20.60;100877.91;1660389;85;21018;-58
2023/05/14 08:47:49;;;;;;;3.92;2.87;;;;;;;28.98;20.13;100879.16;1688358;84;21100;-56
2023/05/14 08:50:19;;;;;;;3.52;2.42;;;;;;;28.87;20.20;100879.06;1708420;84;21081;-78
2023/05/14 08:52:50;;;;;;;2.90;1.90;;;;;;;28.93;20.28;100873.59;1708526;84;21037;-67
2023/05/14 08:55:22;;;;;;;3.58;2.17;;;;;;;29.03;19.20;100877.65;1708618;84;21458;-66
2023/05/14 08:57:51;;;;;;;4.85;2.10;;;;;;;29.00;19.69;100873.46;1708333;84;21057;-69
2023/05/14 09:00:21;;;;;;;3.45;1.90;;;;;;;29.07;19.50;100876.45;1708496;84;21006;-68
2023/05/14 09:02:51;;;;;;;4.92;1.90;;;;;;;29.11;18.92;100867.63;1688621;84;21531;-70
2023/05/14 09:05:23;;;;;;;3.80;1.90;;;;;;;28.99;18.16;100874.61;1688639;84;21077;-66
2023/05/14 09:07:53;;;;;;;4.58;1.70;;;;;;;28.72;18.29;100866.86;1708608;84;21065;-67
2023/05/14 09:10:23;;;;;;;3.52;1.90;;;;;;;28.59;17.41;100859.16;1711941;84;21014;-66
2023/05/14 09:12:53;;;;;;;6.75;1.80;;;;;;;28.54;18.06;100855.02;1708684;84;21085;-64
2023/05/14 09:15:23;;;;;;;4.10;1.90;;;;;;;28.50;18.05;100851.70;1688726;84;21099;-64
2023/05/14 09:17:53;;;;;;;5.47;2.10;;;;;;;28.38;18.10;100856.40;1708652;84;21033;-64
2023/05/14 09:20:24;;;;;;;3.77;2.08;;;;;;;28.24;18.25;100852.67;1708542;84;21038;-67
2023/05/14 09:22:55;;;;;;;3.55;2.12;;;;;;;27.96;18.67;100848.25;1664835;84;21005;-66
2023/05/14 09:25:27;;;;;;;5.00;2.20;;;;;;;27.71;19.21;100847.16;1663445;86;21044;-66
2023/05/14 09:27:58;;;;;;;4.12;2.10;;;;;;;27.63;19.59;100840.22;1650029;86;21543;-66
2023/05/14 09:30:28;;;;;;;4.03;2.40;;;;;;;27.59;19.94;100841.09;1662923;86;21109;-71
2023/05/14 09:32:57;;;;;;;7.28;2.77;;;;;;;27.46;19.87;100838.42;1662940;86;21030;-65
2023/05/14 09:35:27;;;;;;;3.60;2.50;;;;;;;27.34;20.15;100838.01;1663222;86;21088;-66
2023/05/14 09:37:57;;;;;;;5.90;2.70;;;;;;;27.25;20.14;100829.34;1663455;86;21081;-69
2023/05/14 09:40:27;;;;;;;5.20;2.33;;;;;;;27.20;20.17;100832.79;1663454;85;21477;-64
2023/05/14 09:42:57;;;;;;;4.65;2.80;;;;;;;27.08;20.12;100818.56;1682917;85;21078;-65
2023/05/14 09:45:27;;;;;;;6.50;2.60;;;;;;;26.96;20.59;100830.75;1688937;85;21017;-64
2023/05/14 09:47:58;;;;;;;7.65;2.67;;;;;;;26.91;20.66;100817.31;1637943;85;21139;-66
2023/05/14 09:50:29;;;;;;;6.10;2.87;;;;;;;26.86;20.62;100818.20;1639191;85;21538;-67
2023/05/14 09:52:59;;;;;;;3.20;2.37;;;;;;;26.79;20.71;100811.52;1689093;85;21065;-65
2023/05/14 09:55:29;;;;;;;4.85;2.37;;;;;;;26.73;20.73;100815.51;1637647;85;21116;-67
2023/05/14 09:57:58;;;;;;;4.25;2.52;;;;;;;26.66;20.85;100811.33;1688901;85;21571;-66
2023/05/14 10:00:30;;;;;;;8.38;3.35;;;;;;;26.63;21.13;100814.73;1660348;85;21529;-65
2023/05/14 10:03:04;;;;;;;7.37;2.95;;;;;;;26.63;20.79;100804.89;1689252;85;21037;-64
2023/05/14 10:05:36;;;;;;;6.22;4.10;;;;;;;26.53;20.31;100813.69;1688922;85;21107;-66
2023/05/14 10:08:29;;;;;;;4.28;3.12;;;;;;;26.40;20.37;100816.33;1689042;85;21523;-68
2023/05/14 10:10:59;;;;;;;7.85;4.70;;;;;;;26.14;20.50;100815.09;1689133;85;21065;-64
2023/05/14 10:13:32;;;;;;;5.45;3.45;;;;;;;25.87;20.88;100821.69;1689226;85;21017;-64
2023/05/14 10:16:33;;;;;;;5.28;3.08;;;;;;;25.77;21.09;100810.51;1682790;85;21033;-65
2023/05/14 10:19:12;;;;;;;4.83;3.02;;;;;;;25.72;21.69;100813.34;1688990;85;21096;-63
2023/05/14 10:21:44;;;;;;;7.10;3.87;;;;;;;25.64;21.38;100815.32;1686343;84;21122;-66
2023/05/14 10:24:15;;;;;;;5.80;3.10;;;;;;;25.51;21.96;100807.80;1667227;84;21039;-65
2023/05/14 10:26:47;;;;;;;5.45;2.95;;;;;;;25.46;22.19;100812.03;1684117;85;21052;-66
2023/05/14 10:29:17;;;;;;;5.17;2.67;;;;;;;25.40;22.31;100814.58;1627910;88;21020;-69
2023/05/14 10:31:54;;;;;;;5.47;3.45;;;;;;;25.34;22.38;100813.45;1684145;85;21072;-67
2023/05/14 10:34:47;;;;;;;8.15;4.15;;;;;;;25.29;22.48;100808.13;1684950;85;21490;-65
2023/05/14 10:37:18;;;;;;;7.15;4.03;;;;;;;25.30;22.68;100806.16;1672919;85;21040;-65
2023/05/14 10:40:01;;;;;;;5.08;3.40;;;;;;;25.33;22.75;100808.96;1672873;86;21091;-65
2023/05/14 10:42:39;;;;;;;10.10;3.37;;;;;;;25.30;22.72;100808.97;1599652;89;21083;-66
2023/05/14 10:45:13;;;;;;;6.70;3.55;;;;;;;25.24;23.34;100804.50;1571386;90;21495;-67
2023/05/14 10:47:47;;;;;;;7.12;3.42;;;;;;;25.18;23.59;100802.84;1591805;90;21541;-65
2023/05/14 10:50:17;;;;;;;10.10;6.10;;;;;;;25.15;23.77;100808.45;1591883;90;21139;-72
2023/05/14 10:52:48;;;;;;;4.92;3.25;;;;;;;25.16;23.82;100807.89;1571699;90;21178;-69
2023/05/14 10:55:23;;;;;;;6.62;2.98;;;;;;;25.20;23.24;100801.43;1544276;93;21058;-69
2023/05/14 10:57:57;;;;;;;4.30;2.98;;;;;;;25.23;22.63;100799.45;1578393;90;21114;-69
2023/05/14 11:00:27;;;;;;;4.17;3.00;;;;;;;25.24;22.96;100798.33;1614624;84;21057;-70
2023/05/14 11:02:58;;;;;;;9.23;2.92;;;;;;;25.25;22.98;100798.61;1686015;85;21017;-70
2023/05/14 11:05:28;;;;;;;5.70;2.87;;;;;;;25.28;23.18;100800.00;1644521;85;21481;-70
2023/05/14 11:07:59;;;;;;;9.63;5.50;;;;;;;25.29;23.26;100791.30;1686134;85;21519;-71
2023/05/14 11:10:30;;;;;;;13.08;4.80;;;;;;;25.30;23.62;100787.93;1686001;85;21048;-70
2023/05/14 11:13:01;;;;;;;6.53;4.33;;;;;;;25.32;22.97;100791.85;1686049;85;21503;-69
2023/05/14 11:15:31;;;;;;;5.28;3.10;;;;;;;25.32;23.08;100782.87;1686057;85;21120;-69
2023/05/14 11:18:02;;;;;;;3.72;2.58;;;;;;;25.32;23.13;100789.89;1685969;85;21061;-70
2023/05/14 11:20:33;;;;;;;11.40;4.47;;;;;;;25.30;22.97;100786.53;1685754;85;21013;-68
2023/05/14 11:23:03;;;;;;;6.33;3.12;;;;;;;25.21;22.98;100784.04;1713433;83;21083;-70
2023/05/14 11:25:33;;;;;;;8.23;3.40;;;;;;;25.16;22.80;100789.66;1709605;83;21131;-71
2023/05/14 11:28:04;;;;;;;4.33;2.60;;;;;;;25.07;22.75;100782.97;1713371;83;21133;-71
2023/05/14 11:30:35;;;;;;;5.95;2.90;;;;;;;25.06;22.57;100787.73;1709732;84;21150;-72
2023/05/14 11:33:05;;;;;;;4.35;2.47;;;;;;;25.09;22.24;100782.12;1713398;84;21046;-72
2023/05/14 11:35:36;;;;;;;4.90;2.65;;;;;;;25.07;22.46;100781.56;1709982;84;21417;-71